Time;durP1;ratioP1;P1;durP2;ratioP2;P2;SDS_P1;SDS_P2;PMS_P1;PMS_P2;Temp;Humidity;BMP_temperature;BMP_pressure;BME280_temperature;BME280_humidity;BME280_pressure;Samples;Min_cycle;Max_cycle;Signal;HPM_P1;HPM_P2
2021/09/23 00:01:26;;;;;;;;;;;;;;;11.20;77.08;101404.34;1743221;78;20241;-75
2021/09/23 00:06:45;;;;;;;;;;;;;;;11.19;77.23;101404.61;1689886;83;20239;-75
2021/09/23 00:09:16;;;;;;;;;;;;;;;11.23;77.39;101407.17;1689152;85;20200;-74
2021/09/23 00:11:48;;;;;;;;;;;;;;;11.27;77.57;101410.63;1689046;85;20203;-74
2021/09/23 00:14:20;;;;;;;;;;;;;;;11.32;77.31;101417.66;1689031;83;20636;-76
2021/09/23 00:16:52;;;;;;;;;;;;;;;11.37;77.22;101420.54;1689190;84;20568;-78
2021/09/23 00:19:25;;;;;;;;;;;;;;;11.41;77.17;101424.52;1689534;85;20263;-81
2021/09/23 00:21:57;;;;;;;;;;;;;;;11.44;77.10;101425.97;1689576;84;20206;-81
2021/09/23 00:24:30;;;;;;;;;;;;;;;11.43;76.96;101422.33;1693845;83;20226;-74
2021/09/23 00:27:02;;;;;;;;;;;;;;;11.40;76.98;101424.77;1690494;83;20274;-74
2021/09/23 00:29:35;;;;;;;;;;;;;;;11.37;77.12;101423.32;1705746;83;20207;-75
2021/09/23 00:32:06;;;;;;;;;;;;;;;11.37;77.11;101423.32;1773065;79;21088;-77
2021/09/23 00:34:38;;;;;;;;;;;;;;;11.41;77.19;101420.89;1795731;79;20571;-74
2021/09/23 00:37:11;;;;;;;;;;;;;;;11.47;77.11;101426.31;1763183;80;20258;-76
2021/09/23 00:39:45;;;;;;;;;;;;;;;11.53;77.06;101425.32;1794743;80;20615;-76
2021/09/23 00:42:16;;;;;;;;;;;;;;;11.57;76.72;101425.09;1795583;80;20258;-75
2021/09/23 00:44:56;;;;;;;;;;;;;;;11.55;76.63;101418.12;1795625;79;20183;-75
2021/09/23 00:47:30;;;;;;;;;;;;;;;11.51;76.47;101413.61;1795644;80;20186;-74
2021/09/23 00:50:05;;;;;;;;;;;;;;;11.48;76.46;101419.66;1795615;79;20183;-78
2021/09/23 00:52:41;;;;;;;;;;;;;;;11.45;76.45;101410.97;1795753;80;20270;-78
2021/09/23 00:55:13;;;;;;;;;;;;;;;11.44;76.57;101414.84;1795711;80;20544;-77
2021/09/23 00:57:45;;;;;;;;;;;;;;;11.48;76.71;101414.09;1795925;80;20250;-78
2021/09/23 01:00:19;;;;;;;;;;;;;;;11.49;76.61;101412.17;1795881;80;20259;-76
2021/09/23 01:02:53;;;;;;;;;;;;;;;11.51;76.50;101416.39;1791286;80;20171;-76
2021/09/23 01:05:26;;;;;;;;;;;;;;;11.49;76.42;101414.38;1767035;77;20198;-79
2021/09/23 01:07:58;;;;;;;;;;;;;;;11.45;76.38;101411.83;1708844;83;20534;-80
2021/09/23 01:10:30;;;;;;;;;;;;;;;11.42;76.38;101414.23;1708665;83;20237;-79
2021/09/23 01:13:03;;;;;;;;;;;;;;;11.41;76.43;101409.77;1709066;83;20192;-80
2021/09/23 01:15:38;;;;;;;;;;;;;;;11.35;76.47;101410.22;1706415;84;20261;-79
2021/09/23 01:18:10;;;;;;;;;;;;;;;11.33;76.69;101415.20;1708722;83;20228;-78
2021/09/23 01:20:48;;;;;;;;;;;;;;;11.33;76.71;101415.20;1708926;84;20185;-77
2021/09/23 01:23:21;;;;;;;;;;;;;;;11.31;76.74;101412.36;1708792;84;20244;-77
2021/09/23 01:25:53;;;;;;;;;;;;;;;11.29;76.82;101406.19;1708934;84;20545;-77
2021/09/23 01:28:27;;;;;;;;;;;;;;;11.28;76.92;101416.48;1709058;84;20212;-78
2021/09/23 01:31:00;;;;;;;;;;;;;;;11.29;77.08;101415.91;1703872;84;20323;-76
2021/09/23 01:33:34;;;;;;;;;;;;;;;11.27;77.32;101414.80;1708966;84;20236;-84
2021/09/23 01:36:05;;;;;;;;;;;;;;;11.28;77.40;101415.09;1709506;84;20283;-84
2021/09/23 01:38:37;;;;;;;;;;;;;;;11.28;77.49;101412.31;1709409;84;20324;-87
2021/09/23 01:44:24;;;;;;;;;;;;;;;11.31;77.66;101415.14;1706108;84;20228;-85
2021/09/23 01:46:56;;;;;;;;;;;;;;;11.33;77.71;101417.98;1711598;83;20217;-85
2021/09/23 01:49:37;;;;;;;;;;;;;;;11.37;77.72;101415.55;1714225;81;20233;-87
2021/09/23 01:52:10;;;;;;;;;;;;;;;11.40;77.69;101422.84;1713773;82;20201;-87
2021/09/23 01:54:47;;;;;;;;;;;;;;;11.43;77.47;101413.98;1713845;83;20209;-86
2021/09/23 01:57:19;;;;;;;;;;;;;;;11.41;77.25;101405.06;1708926;81;20730;-80
2021/09/23 01:59:52;;;;;;;;;;;;;;;11.41;77.20;101409.77;1706712;82;20192;-77
2021/09/23 02:02:25;;;;;;;;;;;;;;;11.37;77.17;101403.86;1708078;84;20204;-76
2021/09/23 02:04:58;;;;;;;;;;;;;;;11.38;77.42;101406.11;1711684;81;20328;-77
2021/09/23 02:07:30;;;;;;;;;;;;;;;11.41;77.47;101405.06;1676810;82;20295;-76
2021/09/23 02:10:05;;;;;;;;;;;;;;;11.43;77.50;101402.04;1662644;83;20313;-77
2021/09/23 02:12:39;;;;;;;;;;;;;;;11.41;77.38;101407.84;1663182;83;20298;-76
2021/09/23 02:15:12;;;;;;;;;;;;;;;11.38;77.28;101412.49;1662943;83;20211;-76
2021/09/23 02:17:44;;;;;;;;;;;;;;;11.37;77.41;101405.25;1664894;83;20195;-77
2021/09/23 02:20:19;;;;;;;;;;;;;;;11.38;77.42;101408.88;1642209;86;20543;-76
2021/09/23 02:22:54;;;;;;;;;;;;;;;11.36;77.45;101404.95;1640598;87;20273;-75
2021/09/23 02:25:27;;;;;;;;;;;;;;;11.39;77.58;101403.62;1639974;86;20384;-75
2021/09/23 02:27:59;;;;;;;;;;;;;;;11.39;77.58;101414.20;1640707;87;20198;-76
2021/09/23 02:30:31;;;;;;;;;;;;;;;11.40;77.51;101407.55;1649012;84;20331;-74
2021/09/23 02:33:03;;;;;;;;;;;;;;;11.38;77.46;101406.93;1687552;83;20217;-77
2021/09/23 02:35:35;;;;;;;;;;;;;;;11.34;77.40;101409.94;1641322;86;20267;-73
2021/09/23 02:38:07;;;;;;;;;;;;;;;11.31;77.46;101409.02;1655093;84;20265;-76
2021/09/23 02:40:39;;;;;;;;;;;;;;;11.32;77.62;101411.27;1671847;84;20195;-78
2021/09/23 02:43:11;;;;;;;;;;;;;;;11.36;77.66;101409.13;1668011;84;20224;-77
2021/09/23 02:45:43;;;;;;;;;;;;;;;11.40;77.67;101400.59;1661418;85;20184;-77
2021/09/23 02:48:14;;;;;;;;;;;;;;;11.41;77.59;101400.89;1714839;84;20291;-76
2021/09/23 02:50:47;;;;;;;;;;;;;;;11.41;77.52;101393.08;1717368;82;20257;-81
2021/09/23 02:53:20;;;;;;;;;;;;;;;11.37;77.71;101391.91;1705374;84;20198;-81
2021/09/23 02:55:52;;;;;;;;;;;;;;;11.34;77.99;101396.03;1695694;84;20330;-78
2021/09/23 02:58:24;;;;;;;;;;;;;;;11.40;78.39;101390.86;1715960;83;20336;-79
2021/09/23 03:00:56;;;;;;;;;;;;;;;11.40;78.20;101396.96;1716222;82;20212;-80
2021/09/23 03:03:30;;;;;;;;;;;;;;;11.42;78.30;101397.02;1715345;83;20336;-80
2021/09/23 03:06:04;;;;;;;;;;;;;;;11.41;78.27;101405.06;1715510;84;20272;-79
2021/09/23 03:08:37;;;;;;;;;;;;;;;11.41;78.45;101405.59;1718931;82;20260;-80
2021/09/23 03:11:09;;;;;;;;;;;;;;;11.38;78.57;101398.59;1720972;83;20306;-80
2021/09/23 03:13:41;;;;;;;;;;;;;;;11.35;78.75;101406.05;1720847;83;20259;-83
2021/09/23 03:16:14;;;;;;;;;;;;;;;11.35;78.95;101399.11;1692298;85;20194;-82
2021/09/23 03:18:47;;;;;;;;;;;;;;;11.39;79.12;101400.84;1712345;83;20228;-79
2021/09/23 03:21:19;;;;;;;;;;;;;;;11.43;79.15;101399.26;1719923;83;20585;-85
2021/09/23 03:23:53;;;;;;;;;;;;;;;11.45;79.05;101403.48;1719720;83;20662;-80
2021/09/23 03:26:25;;;;;;;;;;;;;;;11.46;79.00;101400.14;1719471;83;20243;-81
2021/09/23 03:28:59;;;;;;;;;;;;;;;11.44;78.88;101398.98;1708824;82;20570;-81
2021/09/23 03:31:33;;;;;;;;;;;;;;;11.44;78.88;101400.94;1706708;83;20228;-81
2021/09/23 03:34:06;;;;;;;;;;;;;;;11.44;78.80;101407.89;1713568;83;20192;-77
2021/09/23 03:36:39;;;;;;;;;;;;;;;11.42;78.76;101404.49;1715079;82;20261;-80
2021/09/23 03:39:13;;;;;;;;;;;;;;;11.41;78.85;101405.59;1721450;82;20253;-79
2021/09/23 03:41:45;;;;;;;;;;;;;;;11.42;78.95;101408.13;1737029;82;20259;-79
2021/09/23 03:44:18;;;;;;;;;;;;;;;11.44;79.08;101409.28;1686888;83;20192;-79
2021/09/23 03:46:57;;;;;;;;;;;;;;;11.51;79.06;101409.97;1715383;82;20348;-81
2021/09/23 03:53:00;;;;;;;;;;;;;;;11.59;78.71;101403.49;1590175;90;20266;-79
2021/09/23 03:55:32;;;;;;;;;;;;;;;11.56;78.32;101408.12;1705892;82;20188;-78
2021/09/23 03:58:08;;;;;;;;;;;;;;;11.56;78.12;101410.90;1709537;83;20343;-80
2021/09/23 04:00:41;;;;;;;;;;;;;;;11.56;78.25;101412.86;1709410;82;20351;-79
2021/09/23 04:03:13;;;;;;;;;;;;;;;11.58;78.58;101417.61;1709842;83;20199;-83
2021/09/23 04:05:45;;;;;;;;;;;;;;;11.57;78.90;101415.92;1711214;83;20191;-78
2021/09/23 04:08:18;;;;;;;;;;;;;;;11.54;79.13;101417.80;1720227;80;20191;-78
2021/09/23 04:10:50;;;;;;;;;;;;;;;11.53;79.42;101427.24;1753798;80;20643;-78
2021/09/23 04:13:23;;;;;;;;;;;;;;;11.54;79.60;101417.80;1765357;80;20282;-78
2021/09/23 04:15:56;;;;;;;;;;;;;;;11.56;79.67;101421.20;1765865;79;20225;-81
2021/09/23 04:18:28;;;;;;;;;;;;;;;11.56;79.99;101426.20;1768223;80;20202;-82
2021/09/23 04:21:00;;;;;;;;;;;;;;;11.57;80.27;101430.66;1763171;80;20265;-83
2021/09/23 04:23:37;;;;;;;;;;;;;;;11.59;80.33;101427.14;1783380;80;20309;-80
2021/09/23 04:26:09;;;;;;;;;;;;;;;11.58;80.40;101428.73;1759919;81;20345;-83
2021/09/23 04:28:41;;;;;;;;;;;;;;;11.59;80.45;101434.63;1762729;81;20258;-81
2021/09/23 04:31:12;;;;;;;;;;;;;;;11.56;80.62;101429.54;1763428;80;20259;-89
2021/09/23 04:33:55;;;;;;;;;;;;;;;11.55;80.72;101436.20;1754230;80;20587;-81
2021/09/23 04:36:28;;;;;;;;;;;;;;;11.51;80.67;101435.00;1740487;82;20206;-84
2021/09/23 04:39:02;;;;;;;;;;;;;;;11.53;80.86;101427.24;1741704;82;20582;-83
2021/09/23 04:41:34;;;;;;;;;;;;;;;11.55;80.85;101434.81;1744393;81;20185;-84
2021/09/23 04:44:07;;;;;;;;;;;;;;;11.54;80.71;101435.88;1743242;81;20187;-80
2021/09/23 04:46:40;;;;;;;;;;;;;;;11.51;80.59;101438.64;1758615;81;20388;-84
2021/09/23 04:49:57;;;;;;;;;;;;;;;11.49;80.65;101438.02;1718952;80;20209;-83
2021/09/23 04:52:29;;;;;;;;;;;;;;;11.47;80.65;101436.05;1730987;82;20194;-84
2021/09/23 04:55:01;;;;;;;;;;;;;;;11.52;80.69;101443.10;1733349;83;20265;-82
2021/09/23 04:57:34;;;;;;;;;;;;;;;11.56;80.63;101446.23;1733430;81;20193;-85
2021/09/23 05:00:08;;;;;;;;;;;;;;;11.56;80.55;101442.88;1751852;80;20647;-82
2021/09/23 05:02:48;;;;;;;;;;;;;;;11.60;80.46;101447.44;1758991;81;20247;-84
2021/09/23 05:05:20;;;;;;;;;;;;;;;11.60;80.37;101452.47;1757158;81;20976;-81
2021/09/23 05:07:53;;;;;;;;;;;;;;;11.65;80.48;101455.88;1734567;82;20267;-77
2021/09/23 05:10:24;;;;;;;;;;;;;;;11.68;80.50;101452.05;1724440;82;20367;-76
2021/09/23 05:12:56;;;;;;;;;;;;;;;11.71;80.36;101457.13;1715233;84;20256;-75
2021/09/23 05:15:27;;;;;;;;;;;;;;;11.78;80.41;101455.03;1715714;82;20263;-75
2021/09/23 05:17:59;;;;;;;;;;;;;;;11.92;80.43;101459.19;1716423;82;20225;-73
2021/09/23 05:20:31;;;;;;;;;;;;;;;12.03;79.88;101455.50;1716204;84;20313;-74
2021/09/23 05:23:05;;;;;;;;;;;;;;;12.17;78.86;101453.24;1716881;81;20313;-75
2021/09/23 05:25:36;;;;;;;;;;;;;;;12.32;78.21;101457.13;1687979;84;20199;-80
2021/09/23 05:28:08;;;;;;;;;;;;;;;12.45;76.44;101462.34;1712021;83;20286;-79
2021/09/23 05:30:39;;;;;;;;;;;;;;;12.57;76.43;101456.14;1710905;82;20259;-79
2021/09/23 05:33:12;;;;;;;;;;;;;;;12.68;76.12;101464.95;1710828;82;20299;-80
2021/09/23 05:35:45;;;;;;;;;;;;;;;12.79;75.72;101461.22;1654078;86;20302;-79
2021/09/23 05:38:18;;;;;;;;;;;;;;;12.89;74.32;101461.92;1669488;84;20554;-75
2021/09/23 05:40:53;;;;;;;;;;;;;;;12.94;73.04;101460.04;1667547;85;20288;-77
2021/09/23 05:43:26;;;;;;;;;;;;;;;12.98;72.27;101456.21;1664981;84;20560;-81
2021/09/23 05:45:58;;;;;;;;;;;;;;;13.06;71.67;101466.91;1659212;84;20197;-76
2021/09/23 05:48:30;;;;;;;;;;;;;;;13.17;70.79;101470.99;1663584;85;20270;-74
2021/09/23 05:51:03;;;;;;;;;;;;;;;13.28;70.34;101466.38;1650796;84;20198;-75
2021/09/23 05:53:35;;;;;;;;;;;;;;;13.49;69.60;101466.91;1665778;84;20194;-75
2021/09/23 05:56:07;;;;;;;;;;;;;;;13.82;68.66;101468.16;1666703;84;20212;-74
2021/09/23 05:58:42;;;;;;;;;;;;;;;14.24;69.00;101465.81;1662730;84;20248;-77
2021/09/23 06:01:16;;;;;;;;;;;;;;;14.70;67.52;101468.42;1667761;86;20275;-74
2021/09/23 06:03:52;;;;;;;;;;;;;;;15.12;66.54;101470.11;1667898;86;20200;-74
2021/09/23 06:06:24;;;;;;;;;;;;;;;15.38;64.93;101471.94;1668119;86;20204;-74
2021/09/23 06:08:56;;;;;;;;;;;;;;;15.35;63.59;101466.91;1667949;86;20195;-74
2021/09/23 06:11:29;;;;;;;;;;;;;;;15.19;63.14;101470.70;1676144;83;20524;-75
2021/09/23 06:14:20;;;;;;;;;;;;;;;14.99;62.31;101478.98;1679454;84;20254;-75
2021/09/23 06:17:09;;;;;;;;;;;;;;;14.65;61.81;101483.20;1679358;85;20548;-75
2021/09/23 06:19:41;;;;;;;;;;;;;;;14.27;62.96;101481.20;1679485;85;20194;-75
2021/09/23 06:22:14;;;;;;;;;;;;;;;13.98;63.27;101480.61;1679415;85;20564;-74
2021/09/23 06:24:46;;;;;;;;;;;;;;;13.63;64.52;101478.81;1679378;85;20187;-74
2021/09/23 06:27:19;;;;;;;;;;;;;;;13.42;66.09;101487.20;1679324;84;20231;-74
2021/09/23 06:29:52;;;;;;;;;;;;;;;13.29;66.23;101485.66;1679320;85;20536;-74
2021/09/23 06:32:24;;;;;;;;;;;;;;;13.18;67.12;101488.02;1679419;84;20202;-74
2021/09/23 06:34:57;;;;;;;;;;;;;;;13.14;67.47;101485.44;1679460;85;20195;-74
2021/09/23 06:37:35;;;;;;;;;;;;;;;13.10;67.43;101488.47;1681166;83;20274;-73
2021/09/23 06:40:07;;;;;;;;;;;;;;;13.10;67.43;101481.50;1679511;85;20540;-75
2021/09/23 06:42:39;;;;;;;;;;;;;;;13.07;67.45;101482.00;1679398;85;20282;-74
2021/09/23 06:45:11;;;;;;;;;;;;;;;13.04;66.95;101485.85;1679433;85;20552;-75
2021/09/23 06:47:42;;;;;;;;;;;;;;;12.96;66.97;101488.52;1679464;85;20194;-76
2021/09/23 06:50:15;;;;;;;;;;;;;;;12.91;67.26;101482.01;1679374;85;20195;-73
2021/09/23 06:52:47;;;;;;;;;;;;;;;12.97;67.85;101483.23;1679362;85;20266;-73
2021/09/23 06:55:19;;;;;;;;;;;;;;;13.19;67.91;101463.73;1679560;85;20243;-75
2021/09/23 06:57:51;;;;;;;;;;;;;;;13.49;68.24;101476.14;1679415;85;20540;-75
2021/09/23 07:00:40;;;;;;;;;;;;;;;13.83;68.39;101473.48;1679944;85;20191;-74
2021/09/23 07:03:20;;;;;;;;;;;;;;;14.05;64.76;101479.84;1678135;85;20228;-74
2021/09/23 07:06:00;;;;;;;;;;;;;;;14.03;64.49;101481.20;1681914;83;20202;-75
2021/09/23 07:08:33;;;;;;;;;;;;;;;13.94;63.94;101485.59;1679454;85;20551;-75
2021/09/23 07:11:06;;;;;;;;;;;;;;;13.80;64.21;101480.11;1682836;84;20228;-74
2021/09/23 07:13:40;;;;;;;;;;;;;;;13.70;64.69;101485.03;1700908;84;20284;-74
2021/09/23 07:16:16;;;;;;;;;;;;;;;13.63;64.84;101491.37;1700899;84;20296;-74
2021/09/23 07:18:50;;;;;;;;;;;;;;;13.51;64.67;101487.87;1700836;84;20276;-74
2021/09/23 07:21:22;;;;;;;;;;;;;;;13.36;64.92;101486.30;1701001;84;20189;-74
2021/09/23 07:23:56;;;;;;;;;;;;;;;13.27;65.49;101490.63;1700937;83;20244;-74
2021/09/23 07:26:28;;;;;;;;;;;;;;;13.26;66.02;101486.73;1701050;84;20257;-73
2021/09/23 07:29:00;;;;;;;;;;;;;;;13.25;65.66;101481.69;1701009;84;20296;-75
2021/09/23 07:31:32;;;;;;;;;;;;;;;13.15;65.67;101487.69;1701059;84;20264;-75
2021/09/23 07:34:04;;;;;;;;;;;;;;;13.08;66.12;101482.28;1701174;84;20224;-74
2021/09/23 07:36:39;;;;;;;;;;;;;;;13.07;66.61;101483.39;1700823;84;20193;-74
2021/09/23 07:39:11;;;;;;;;;;;;;;;13.07;67.08;101479.78;1702323;84;20280;-74
2021/09/23 07:41:44;;;;;;;;;;;;;;;13.06;67.29;101492.00;1704446;84;20217;-74
2021/09/23 07:44:20;;;;;;;;;;;;;;;13.01;67.41;101495.57;1704945;84;20245;-74
2021/09/23 07:46:55;;;;;;;;;;;;;;;12.94;67.03;101487.05;1698483;84;20193;-75
2021/09/23 07:49:27;;;;;;;;;;;;;;;12.88;67.26;101490.33;1701071;83;20232;-75
2021/09/23 07:52:00;;;;;;;;;;;;;;;12.84;67.26;101490.53;1701039;84;20228;-74
2021/09/23 07:54:33;;;;;;;;;;;;;;;12.80;67.23;101486.59;1700952;84;20193;-75
2021/09/23 07:57:05;;;;;;;;;;;;;;;12.76;66.93;101490.13;1700993;84;20261;-75
2021/09/23 07:59:37;;;;;;;;;;;;;;;12.72;67.08;101488.40;1700870;84;20233;-75
2021/09/23 08:02:09;;;;;;;;;;;;;;;12.74;67.38;101488.16;1700970;84;20193;-74
2021/09/23 08:04:42;;;;;;;;;;;;;;;12.79;66.77;101487.70;1700785;84;20224;-75
2021/09/23 08:07:16;;;;;;;;;;;;;;;12.89;66.57;101483.65;1700759;84;20304;-74
2021/09/23 08:09:48;;;;;;;;;;;;;;;13.05;66.83;101484.75;1700907;84;20197;-74
2021/09/23 08:12:20;;;;;;;;;;;;;;;13.22;66.29;101478.58;1700795;83;20313;-74
2021/09/23 08:14:55;;;;;;;;;;;;;;;13.33;65.71;101482.62;1700826;84;20264;-74
2021/09/23 08:17:35;;;;;;;;;;;;;;;13.38;65.08;101477.69;1698203;84;20261;-74
2021/09/23 08:20:09;;;;;;;;;;;;;;;13.37;64.80;101487.98;1700692;84;20201;-74
2021/09/23 08:22:43;;;;;;;;;;;;;;;13.30;63.68;101492.06;1679341;84;20622;-72
2021/09/23 08:25:16;;;;;;;;;;;;;;;13.23;63.88;101485.30;1700909;83;20193;-74
2021/09/23 08:27:48;;;;;;;;;;;;;;;13.17;63.79;101482.69;1700885;84;20189;-76
2021/09/23 08:30:20;;;;;;;;;;;;;;;13.15;64.33;101484.90;1700919;84;20189;-76
2021/09/23 08:32:59;;;;;;;;;;;;;;;13.15;64.51;101489.91;1700973;82;20243;-74
2021/09/23 08:35:31;;;;;;;;;;;;;;;13.14;64.50;101490.19;1701278;83;20246;-75
2021/09/23 08:38:05;;;;;;;;;;;;;;;13.08;64.22;101500.41;1701060;84;20268;-74
2021/09/23 08:40:37;;;;;;;;;;;;;;;13.03;64.65;101493.92;1700988;84;20185;-74
2021/09/23 08:43:08;;;;;;;;;;;;;;;13.01;65.17;101494.17;1700971;84;20256;-74
2021/09/23 08:45:41;;;;;;;;;;;;;;;13.01;65.48;101484.98;1679857;84;20223;-76
2021/09/23 08:48:14;;;;;;;;;;;;;;;13.02;65.63;101489.46;1700966;84;20264;-74
2021/09/23 08:50:45;;;;;;;;;;;;;;;13.03;65.53;101491.97;1701020;84;20217;-75
2021/09/23 08:53:20;;;;;;;;;;;;;;;13.06;65.82;101497.58;1698400;84;20622;-75
2021/09/23 08:55:52;;;;;;;;;;;;;;;13.10;65.30;101498.23;1700912;83;20315;-74
2021/09/23 08:58:26;;;;;;;;;;;;;;;13.12;64.96;101496.02;1701074;84;20201;-76
2021/09/23 09:01:09;;;;;;;;;;;;;;;13.12;64.82;101494.63;1701196;84;20188;-75
2021/09/23 09:04:01;;;;;;;;;;;;;;;13.13;64.82;101493.52;1701156;84;20297;-75
2021/09/23 09:07:00;;;;;;;;;;;;;;;13.13;64.40;101487.94;1692732;83;20319;-75
2021/09/23 09:09:33;;;;;;;;;;;;;;;13.14;64.33;101492.41;1697658;84;20268;-75
2021/09/23 09:12:10;;;;;;;;;;;;;;;13.15;63.72;101484.33;1705996;83;20315;-76
2021/09/23 09:14:46;;;;;;;;;;;;;;;13.18;63.58;101489.41;1706520;84;20221;-75
2021/09/23 09:17:19;;;;;;;;;;;;;;;13.20;63.71;101487.20;1689603;84;20605;-74
2021/09/23 09:20:00;;;;;;;;;;;;;;;13.25;63.58;101485.02;1708935;83;20185;-75
2021/09/23 09:22:35;;;;;;;;;;;;;;;13.29;62.06;101478.69;1710486;83;20196;-75
2021/09/23 09:25:10;;;;;;;;;;;;;;;13.36;62.19;101487.70;1709468;84;20291;-75
2021/09/23 09:27:49;;;;;;;;;;;;;;;13.46;62.70;101486.41;1708822;84;20545;-75
2021/09/23 09:30:23;;;;;;;;;;;;;;;13.56;62.69;101487.95;1708953;84;20196;-76
2021/09/23 09:32:59;;;;;;;;;;;;;;;13.62;62.46;101484.11;1689624;84;20601;-75
2021/09/23 09:35:35;;;;;;;;;;;;;;;13.68;62.53;101490.05;1708900;83;20240;-75
2021/09/23 09:38:10;;;;;;;;;;;;;;;13.74;62.46;101489.57;1706309;83;20621;-75
2021/09/23 09:40:43;;;;;;;;;;;;;;;13.80;61.94;101498.27;1689441;84;20291;-75
2021/09/23 09:43:17;;;;;;;;;;;;;;;13.84;61.76;101493.31;1708880;84;20241;-75
2021/09/23 09:45:52;;;;;;;;;;;;;;;13.88;61.56;101503.39;1709045;83;20196;-75
2021/09/23 09:48:33;;;;;;;;;;;;;;;13.85;61.43;101506.16;1709104;83;20256;-75
2021/09/23 09:51:07;;;;;;;;;;;;;;;13.80;61.06;101506.09;1709317;83;20276;-75
2021/09/23 09:53:39;;;;;;;;;;;;;;;13.75;61.54;101506.03;1709871;83;20267;-74
2021/09/23 09:56:23;;;;;;;;;;;;;;;13.69;60.79;101507.08;1710632;83;20252;-75
2021/09/23 09:59:16;;;;;;;;;;;;;;;13.61;61.37;101506.15;1709844;84;20193;-74
2021/09/23 10:01:57;;;;;;;;;;;;;;;13.54;61.65;101506.91;1711136;84;20268;-74
2021/09/23 10:04:46;;;;;;;;;;;;;;;13.50;62.00;101503.50;1772964;80;20251;-74
2021/09/23 10:07:18;;;;;;;;;;;;;;;13.47;62.00;101504.87;1773033;80;20545;-75
2021/09/23 10:09:50;;;;;;;;;;;;;;;13.46;62.27;101499.54;1772873;80;20195;-77
2021/09/23 10:12:24;;;;;;;;;;;;;;;13.49;62.25;101501.25;1772851;80;20207;-77
2021/09/23 10:14:57;;;;;;;;;;;;;;;13.51;61.18;101494.84;1773002;79;20596;-75
2021/09/23 10:17:35;;;;;;;;;;;;;;;13.52;61.58;101493.74;1773360;80;20299;-74
2021/09/23 10:20:05;;;;;;;;;;;;;;;13.58;61.72;101490.48;1773270;80;20255;-73
2021/09/23 10:22:38;;;;;;;;;;;;;;;13.64;62.08;101488.05;1772997;80;20191;-77
2021/09/23 10:25:19;;;;;;;;;;;;;;;13.66;61.60;101492.27;1772918;80;20176;-76
2021/09/23 10:28:00;;;;;;;;;;;;;;;13.65;60.91;101491.98;1772942;80;20191;-75
2021/09/23 10:30:39;;;;;;;;;;;;;;;13.60;60.49;101490.52;1773046;81;20284;-75
2021/09/23 10:33:11;;;;;;;;;;;;;;;13.51;61.13;101493.45;1772924;80;20556;-78
2021/09/23 10:35:43;;;;;;;;;;;;;;;13.47;61.43;101495.64;1772960;80;20219;-76
2021/09/23 10:38:22;;;;;;;;;;;;;;;13.46;61.79;101493.39;1774139;80;20652;-74
2021/09/23 10:40:54;;;;;;;;;;;;;;;13.48;61.34;101492.59;1756999;80;20295;-75
2021/09/23 10:43:25;;;;;;;;;;;;;;;13.50;61.50;101489.55;1757122;81;20252;-74
2021/09/23 10:46:00;;;;;;;;;;;;;;;13.53;61.66;101489.88;1772811;80;20284;-74
2021/09/23 10:48:35;;;;;;;;;;;;;;;13.53;61.42;101487.09;1754286;81;21112;-74
2021/09/23 10:51:09;;;;;;;;;;;;;;;13.50;60.99;101498.75;1775918;81;20331;-74
2021/09/23 10:53:42;;;;;;;;;;;;;;;13.44;61.13;101502.58;1776521;79;20268;-75
2021/09/23 10:56:20;;;;;;;;;;;;;;;13.37;61.17;101495.50;1756414;81;20561;-76
2021/09/23 10:58:53;;;;;;;;;;;;;;;13.30;61.46;101499.89;1777417;81;20212;-74
2021/09/23 11:01:34;;;;;;;;;;;;;;;13.25;61.98;101499.81;1776069;81;20216;-77
2021/09/23 11:04:09;;;;;;;;;;;;;;;13.25;62.02;101501.21;1773613;81;20310;-75
2021/09/23 11:06:42;;;;;;;;;;;;;;;13.24;61.98;101499.53;1758000;81;20260;-74
2021/09/23 11:09:22;;;;;;;;;;;;;;;13.26;61.60;101497.89;1775905;81;20537;-75
2021/09/23 11:12:03;;;;;;;;;;;;;;;13.28;61.81;101497.92;1773128;80;20215;-76
2021/09/23 11:14:37;;;;;;;;;;;;;;;13.34;61.51;101495.50;1777163;81;20219;-75
2021/09/23 11:17:09;;;;;;;;;;;;;;;13.43;61.54;101503.69;1777139;81;20279;-74
2021/09/23 11:19:41;;;;;;;;;;;;;;;13.51;61.45;101499.04;1757754;81;20239;-74
2021/09/23 11:22:15;;;;;;;;;;;;;;;13.59;61.00;101503.33;1776163;79;20176;-74
2021/09/23 11:24:47;;;;;;;;;;;;;;;13.66;60.48;101503.97;1733036;81;20189;-75
2021/09/23 11:27:21;;;;;;;;;;;;;;;13.70;60.26;101503.75;1755909;81;20180;-75
2021/09/23 11:29:56;;;;;;;;;;;;;;;13.72;59.96;101511.30;1773991;80;20192;-75
2021/09/23 11:32:28;;;;;;;;;;;;;;;13.72;60.33;101511.30;1774821;80;20196;-76
2021/09/23 11:35:03;;;;;;;;;;;;;;;13.68;59.30;101501.20;1773574;81;20552;-77
2021/09/23 11:37:34;;;;;;;;;;;;;;;13.67;59.30;101507.04;1773552;80;20235;-75
2021/09/23 11:40:07;;;;;;;;;;;;;;;13.59;59.41;101504.19;1734684;81;20221;-76
2021/09/23 11:42:44;;;;;;;;;;;;;;;13.58;59.83;101507.23;1735022;82;20198;-76
2021/09/23 11:45:22;;;;;;;;;;;;;;;13.57;60.26;101507.77;1734985;82;20282;-76
2021/09/23 11:47:59;;;;;;;;;;;;;;;13.55;60.16;101503.00;1734919;82;20714;-75
2021/09/23 11:50:40;;;;;;;;;;;;;;;13.55;60.28;101509.98;1735076;82;20183;-74
2021/09/23 11:53:20;;;;;;;;;;;;;;;13.59;60.52;101509.77;1716695;83;20298;-75
2021/09/23 11:55:59;;;;;;;;;;;;;;;13.63;60.42;101515.66;1735375;83;20261;-74
2021/09/23 11:58:35;;;;;;;;;;;;;;;13.65;60.08;101512.05;1729515;82;20261;-75
2021/09/23 12:01:07;;;;;;;;;;;;;;;13.65;59.69;101512.91;1734973;83;20269;-76
2021/09/23 12:03:41;;;;;;;;;;;;;;;13.68;59.55;101514.34;1734983;82;20285;-77
2021/09/23 12:06:17;;;;;;;;;;;;;;;13.70;59.51;101510.16;1735060;81;20262;-75
2021/09/23 12:08:53;;;;;;;;;;;;;;;13.75;59.52;101512.19;1734782;82;20579;-75
2021/09/23 12:11:25;;;;;;;;;;;;;;;13.82;59.92;101508.06;1734874;83;20254;-75
2021/09/23 12:13:59;;;;;;;;;;;;;;;13.89;59.99;101504.54;1734603;82;20242;-78
2021/09/23 12:16:32;;;;;;;;;;;;;;;13.97;59.77;101506.00;1738894;80;20187;-76
2021/09/23 12:19:22;;;;;;;;;;;;;;;14.01;58.55;101508.56;1697454;83;20315;-75
2021/09/23 12:22:02;;;;;;;;;;;;;;;14.00;58.55;101506.31;1733290;81;20219;-76
2021/09/23 12:24:36;;;;;;;;;;;;;;;13.99;58.55;101503.23;1726151;81;20384;-78
2021/09/23 12:27:09;;;;;;;;;;;;;;;13.96;57.85;101506.57;1725680;81;20712;-73
2021/09/23 12:29:44;;;;;;;;;;;;;;;13.94;57.79;101505.14;1734466;81;20283;-72
2021/09/23 12:32:18;;;;;;;;;;;;;;;13.94;58.23;101500.95;1726225;82;20547;-72
2021/09/23 12:34:50;;;;;;;;;;;;;;;13.98;58.29;101511.87;1725909;81;20295;-74
2021/09/23 12:37:23;;;;;;;;;;;;;;;14.02;58.31;101504.66;1730310;81;20255;-73
2021/09/23 12:40:04;;;;;;;;;;;;;;;14.05;58.35;101499.39;1740615;80;20257;-75
2021/09/23 12:42:37;;;;;;;;;;;;;;;14.06;58.29;101504.44;1754341;80;20300;-72
2021/09/23 12:45:15;;;;;;;;;;;;;;;14.06;58.67;101511.41;1743297;80;20272;-74
2021/09/23 12:47:53;;;;;;;;;;;;;;;14.06;58.61;101508.05;1768114;80;20523;-72
2021/09/23 12:50:33;;;;;;;;;;;;;;;14.07;58.45;101510.30;1750771;80;20211;-75
2021/09/23 12:53:07;;;;;;;;;;;;;;;14.09;58.58;101512.27;1769168;80;20332;-72
2021/09/23 12:55:42;;;;;;;;;;;;;;;14.11;58.85;101508.11;1764944;80;20271;-76
2021/09/23 12:58:21;;;;;;;;;;;;;;;14.14;59.03;101509.00;1774840;80;21093;-76
2021/09/23 13:00:53;;;;;;;;;;;;;;;14.16;59.06;101512.36;1777382;80;20215;-75
2021/09/23 13:03:28;;;;;;;;;;;;;;;14.21;58.63;101510.19;1749996;82;20209;-71
2021/09/23 13:06:06;;;;;;;;;;;;;;;14.24;58.13;101509.68;1749181;81;20190;-73
2021/09/23 13:08:48;;;;;;;;;;;;;;;14.25;58.05;101512.19;1744431;81;20618;-73
2021/09/23 13:11:22;;;;;;;;;;;;;;;14.27;58.06;101516.13;1745777;80;20201;-73
2021/09/23 13:14:20;;;;;;;;;;;;;;;14.25;58.41;101516.38;1749926;80;20234;-80
2021/09/23 13:16:56;;;;;;;;;;;;;;;14.23;58.29;101511.62;1635684;86;20266;-72
2021/09/23 13:19:29;;;;;;;;;;;;;;;14.20;57.92;101513.56;1667466;84;20291;-74
2021/09/23 13:22:04;;;;;;;;;;;;;;;14.11;58.13;101509.50;1708972;80;20198;-70